Time;durP1;ratioP1;P1;durP2;ratioP2;P2;SDS_P1;SDS_P2;PMS_P1;PMS_P2;Temp;Humidity;BMP_temperature;BMP_pressure;BME280_temperature;BME280_humidity;BME280_pressure;Samples;Min_cycle;Max_cycle;Signal;HPM_P1;HPM_P2
2023/06/03 00:00:34;;;;;;;2.70;1.30;;;11.60;99.90;;;;;;5062956;28;20029;-71
2023/06/03 00:02:59;;;;;;;4.15;1.35;;;11.60;99.90;;;;;;5062414;28;20036;-71
2023/06/03 00:05:25;;;;;;;3.92;1.17;;;11.60;99.90;;;;;;5061592;28;20052;-70
2023/06/03 00:07:51;;;;;;;2.33;1.35;;;11.60;99.90;;;;;;5062240;28;20108;-71
2023/06/03 00:10:17;;;;;;;4.55;1.55;;;11.50;99.90;;;;;;5062102;28;20025;-71
2023/06/03 00:12:43;;;;;;;4.70;1.40;;;11.50;99.90;;;;;;5061089;28;20060;-71
2023/06/03 00:15:12;;;;;;;4.63;1.30;;;11.50;99.90;;;;;;5061493;28;20021;-71
2023/06/03 00:17:38;;;;;;;8.20;1.20;;;11.50;99.90;;;;;;5061067;28;20035;-71
2023/06/03 00:20:09;;;;;;;2.97;1.50;;;11.40;99.90;;;;;;5061856;28;20036;-71
2023/06/03 00:22:36;;;;;;;2.15;0.95;;;11.40;99.90;;;;;;5061119;28;20029;-70
2023/06/03 00:25:02;;;;;;;10.80;1.40;;;11.30;99.90;;;;;;5061558;28;20039;-70
2023/06/03 00:27:27;;;;;;;2.85;1.27;;;11.30;99.90;;;;;;5062326;28;20097;-70
2023/06/03 00:29:53;;;;;;;2.53;1.17;;;11.30;99.90;;;;;;5060974;28;20051;-70
2023/06/03 00:32:18;;;;;;;5.75;1.40;;;11.30;99.90;;;;;;5062059;28;20044;-71
2023/06/03 00:34:44;;;;;;;4.25;1.50;;;11.30;99.90;;;;;;5060394;28;20021;-72
2023/06/03 00:37:10;;;;;;;7.55;1.50;;;11.20;99.90;;;;;;5062104;28;20024;-70
2023/06/03 00:39:35;;;;;;;3.40;1.50;;;11.10;99.90;;;;;;5061592;28;20105;-70
2023/06/03 00:42:01;;;;;;;2.58;1.33;;;11.10;99.90;;;;;;5062260;28;20032;-70
2023/06/03 00:44:27;;;;;;;4.15;1.58;;;11.10;99.90;;;;;;5062054;28;20025;-71
2023/06/03 00:46:53;;;;;;;4.88;1.48;;;11.10;99.90;;;;;;5062069;28;20127;-70
2023/06/03 00:49:18;;;;;;;5.20;1.40;;;11.00;99.90;;;;;;5060243;28;20509;-71
2023/06/03 00:51:45;;;;;;;5.70;1.70;;;11.00;99.90;;;;;;5061446;28;21454;-70
2023/06/03 00:54:11;;;;;;;3.28;1.20;;;10.90;99.90;;;;;;5060535;28;20021;-72
2023/06/03 00:56:42;;;;;;;2.40;1.35;;;10.90;99.90;;;;;;5062117;28;20056;-70
2023/06/03 00:59:17;;;;;;;4.95;1.40;;;10.90;99.90;;;;;;5061563;28;20020;-71
2023/06/03 01:01:43;;;;;;;2.83;1.45;;;10.90;99.90;;;;;;5061464;28;20029;-71
2023/06/03 01:04:16;;;;;;;2.50;1.55;;;10.90;99.90;;;;;;5061941;28;20155;-70
2023/06/03 01:07:13;;;;;;;5.88;1.92;;;10.80;99.90;;;;;;5061056;28;20032;-70
2023/06/03 01:10:17;;;;;;;3.08;1.38;;;10.80;99.90;;;;;;5061184;28;20029;-71
2023/06/03 01:12:53;;;;;;;2.85;1.20;;;10.70;99.90;;;;;;5061698;28;20017;-70
2023/06/03 01:15:23;;;;;;;4.03;1.73;;;10.70;99.90;;;;;;5061407;28;20725;-72
2023/06/03 01:17:51;;;;;;;5.03;1.67;;;10.70;99.90;;;;;;5060418;28;20390;-71
2023/06/03 01:20:17;;;;;;;6.63;1.50;;;10.70;99.90;;;;;;5061092;28;20072;-70
2023/06/03 01:22:49;;;;;;;5.72;1.60;;;10.60;99.90;;;;;;5061226;28;20025;-69
2023/06/03 01:25:16;;;;;;;3.92;1.70;;;10.60;99.90;;;;;;5060952;28;20083;-70
2023/06/03 01:27:44;;;;;;;5.28;1.65;;;10.60;99.90;;;;;;5061175;28;20021;-71
2023/06/03 01:30:12;;;;;;;4.85;1.67;;;10.60;99.90;;;;;;5060678;28;20021;-71
2023/06/03 01:32:38;;;;;;;3.47;1.55;;;10.60;99.90;;;;;;5061075;28;20013;-70
2023/06/03 01:35:09;;;;;;;5.05;1.70;;;10.60;99.90;;;;;;5059955;28;20031;-70
2023/06/03 01:37:35;;;;;;;5.45;2.05;;;10.60;99.90;;;;;;5060192;28;20026;-71
2023/06/03 01:40:03;;;;;;;2.97;1.40;;;10.60;99.90;;;;;;5059449;28;20029;-70
2023/06/03 01:42:29;;;;;;;5.22;1.70;;;10.60;99.90;;;;;;5059846;28;20033;-72
2023/06/03 01:44:57;;;;;;;5.97;1.70;;;10.60;99.90;;;;;;5060657;28;20119;-70
2023/06/03 01:47:23;;;;;;;5.43;1.70;;;10.50;99.90;;;;;;5061539;28;20017;-70
2023/06/03 01:49:48;;;;;;;3.70;1.88;;;10.50;99.90;;;;;;5061136;28;20057;-70
2023/06/03 01:52:14;;;;;;;5.60;1.90;;;10.50;99.90;;;;;;5060912;28;20079;-69
2023/06/03 01:54:40;;;;;;;4.93;1.98;;;10.50;99.90;;;;;;5061000;28;20076;-69
2023/06/03 01:57:06;;;;;;;5.68;1.70;;;10.30;99.90;;;;;;5060848;28;20025;-70
2023/06/03 01:59:32;;;;;;;2.92;1.70;;;10.40;99.90;;;;;;5061084;28;20025;-71
2023/06/03 02:01:59;;;;;;;6.38;2.08;;;10.40;99.90;;;;;;5060739;28;20021;-71
2023/06/03 02:04:26;;;;;;;6.20;1.90;;;10.30;99.90;;;;;;5060650;28;20028;-71
2023/06/03 02:06:56;;;;;;;5.72;1.70;;;10.30;99.90;;;;;;5062885;28;20021;-70
2023/06/03 02:09:24;;;;;;;4.38;1.98;;;10.30;99.90;;;;;;5064315;28;20042;-70
2023/06/03 02:11:57;;;;;;;5.07;1.83;;;10.30;99.90;;;;;;5063797;28;20519;-69
2023/06/03 02:14:25;;;;;;;7.50;1.85;;;10.20;99.90;;;;;;5064728;28;20021;-70
2023/06/03 02:16:52;;;;;;;6.32;2.15;;;10.20;99.90;;;;;;5065054;28;20059;-70
2023/06/03 02:19:20;;;;;;;4.18;1.70;;;10.10;99.90;;;;;;5063117;28;20394;-70
2023/06/03 02:21:47;;;;;;;7.15;2.33;;;10.10;99.90;;;;;;5064208;28;20033;-70
2023/06/03 02:24:16;;;;;;;7.25;2.35;;;10.10;99.90;;;;;;5065066;28;20029;-70
2023/06/03 02:26:56;;;;;;;6.60;2.08;;;10.00;99.90;;;;;;5064369;28;20067;-70
2023/06/03 02:29:27;;;;;;;3.28;1.92;;;10.00;99.90;;;;;;5064776;28;20084;-69
2023/06/03 02:31:53;;;;;;;4.82;2.00;;;10.00;99.90;;;;;;5064546;28;20067;-71
2023/06/03 02:34:20;;;;;;;2.88;1.83;;;10.00;99.90;;;;;;5063038;28;20075;-71
2023/06/03 02:36:46;;;;;;;5.80;1.90;;;10.00;99.90;;;;;;5064140;28;20119;-72
2023/06/03 02:39:12;;;;;;;3.42;2.00;;;10.00;99.90;;;;;;5062926;28;20036;-70
2023/06/03 02:41:38;;;;;;;4.43;1.95;;;10.00;99.90;;;;;;5063240;28;20027;-71
2023/06/03 02:44:04;;;;;;;4.88;2.13;;;10.00;99.90;;;;;;5063735;28;20029;-70
2023/06/03 02:46:31;;;;;;;3.13;1.80;;;9.90;99.90;;;;;;5064048;28;20059;-71
2023/06/03 02:48:56;;;;;;;3.00;1.90;;;9.90;99.90;;;;;;5063593;28;20101;-72
2023/06/03 02:51:22;;;;;;;8.90;2.03;;;9.90;99.90;;;;;;5062678;28;20072;-72
2023/06/03 02:53:49;;;;;;;7.40;2.20;;;9.90;99.90;;;;;;5064127;28;20013;-72
2023/06/03 02:56:15;;;;;;;5.57;2.25;;;9.90;99.90;;;;;;5064025;28;20037;-71
2023/06/03 02:58:40;;;;;;;5.25;2.00;;;9.80;99.90;;;;;;5063575;28;20108;-70
2023/06/03 03:01:06;;;;;;;3.83;2.20;;;9.80;99.90;;;;;;5063944;28;20028;-71
2023/06/03 03:03:35;;;;;;;7.05;2.08;;;9.80;99.90;;;;;;5063395;28;20025;-72
2023/06/03 03:06:03;;;;;;;4.70;2.15;;;9.80;99.90;;;;;;5061797;28;20044;-72
2023/06/03 03:08:32;;;;;;;5.15;2.20;;;9.80;99.90;;;;;;5062463;28;20033;-71
2023/06/03 03:10:57;;;;;;;3.95;2.33;;;9.70;99.90;;;;;;5063500;28;20163;-70
2023/06/03 03:13:23;;;;;;;6.15;2.53;;;9.70;99.90;;;;;;5063984;28;20822;-71
2023/06/03 03:15:48;;;;;;;4.85;2.50;;;9.70;99.90;;;;;;5062108;28;20394;-71
2023/06/03 03:18:14;;;;;;;4.55;2.25;;;9.70;99.90;;;;;;5061641;28;20024;-69
2023/06/03 03:20:40;;;;;;;5.03;2.25;;;9.70;99.90;;;;;;5063101;28;20083;-71
2023/06/03 03:23:07;;;;;;;7.03;2.58;;;9.60;99.90;;;;;;5063548;28;20115;-70
2023/06/03 03:25:36;;;;;;;8.45;2.47;;;9.60;99.90;;;;;;5063053;28;20029;-72
2023/06/03 03:28:02;;;;;;;5.03;2.80;;;9.60;99.90;;;;;;5063655;28;20021;-69
2023/06/03 03:30:27;;;;;;;4.45;2.28;;;9.60;99.90;;;;;;5062320;28;20021;-73
2023/06/03 03:32:53;;;;;;;6.43;2.45;;;9.60;99.90;;;;;;5063526;28;20036;-72
2023/06/03 03:35:20;;;;;;;8.48;2.40;;;9.50;99.90;;;;;;5063233;28;20029;-71
2023/06/03 03:37:47;;;;;;;4.63;2.58;;;9.60;99.90;;;;;;5062934;28;20104;-71
2023/06/03 03:40:21;;;;;;;4.40;2.03;;;9.50;99.90;;;;;;5061114;28;20029;-73
2023/06/03 03:42:50;;;;;;;4.20;2.15;;;9.50;99.90;;;;;;5063202;28;20055;-70
2023/06/03 03:45:22;;;;;;;5.97;2.50;;;9.50;99.90;;;;;;5062533;28;20037;-71
2023/06/03 03:47:49;;;;;;;6.00;2.67;;;9.50;99.90;;;;;;5062555;28;20025;-71
2023/06/03 03:50:38;;;;;;;5.03;2.25;;;9.50;99.90;;;;;;5062575;28;20009;-70
2023/06/03 03:53:06;;;;;;;8.60;3.00;;;9.50;99.90;;;;;;5059232;28;20041;-71
2023/06/03 03:55:37;;;;;;;6.07;2.40;;;9.50;99.90;;;;;;5062343;28;20055;-71
2023/06/03 03:58:23;;;;;;;7.00;2.50;;;9.50;99.90;;;;;;5062730;28;20084;-71
2023/06/03 04:00:51;;;;;;;5.88;2.63;;;9.40;99.90;;;;;;5060756;28;20048;-70
2023/06/03 04:03:17;;;;;;;6.43;2.50;;;9.40;99.90;;;;;;5062933;28;20029;-70
2023/06/03 04:05:44;;;;;;;5.18;2.30;;;9.40;99.90;;;;;;5060363;28;20466;-70
2023/06/03 04:08:33;;;;;;;5.85;2.25;;;9.50;99.90;;;;;;5061517;28;20029;-70
2023/06/03 04:11:00;;;;;;;4.53;2.45;;;9.50;99.90;;;;;;5060765;28;20047;-70
2023/06/03 04:13:25;;;;;;;4.47;2.25;;;9.50;99.90;;;;;;5062899;28;20081;-71
2023/06/03 04:15:51;;;;;;;5.45;2.75;;;9.50;99.90;;;;;;5062688;28;20040;-70
2023/06/03 04:18:20;;;;;;;5.60;2.63;;;9.50;99.90;;;;;;5062801;28;20029;-70
2023/06/03 04:20:48;;;;;;;6.32;2.42;;;9.50;99.90;;;;;;5061567;28;20029;-70
2023/06/03 04:23:17;;;;;;;5.43;2.88;;;9.50;99.90;;;;;;5060918;28;20044;-71
2023/06/03 04:25:43;;;;;;;5.93;2.90;;;9.50;99.90;;;;;;5062115;28;20524;-70
2023/06/03 04:28:11;;;;;;;6.30;2.70;;;9.50;99.90;;;;;;5062312;28;20021;-70
2023/06/03 04:30:37;;;;;;;5.55;2.95;;;9.60;99.90;;;;;;5060143;28;20017;-71
2023/06/03 04:33:03;;;;;;;8.38;2.90;;;9.60;99.90;;;;;;5061860;28;20039;-70
2023/06/03 04:35:29;;;;;;;9.27;3.13;;;9.60;99.90;;;;;;5060412;28;20460;-71
2023/06/03 04:37:57;;;;;;;4.28;2.63;;;9.60;99.90;;;;;;5062609;28;20029;-70
2023/06/03 04:40:22;;;;;;;5.18;2.85;;;9.70;99.90;;;;;;5062206;28;20024;-70
2023/06/03 04:42:49;;;;;;;12.48;2.70;;;9.70;99.90;;;;;;5061366;28;20032;-71
2023/06/03 04:45:15;;;;;;;10.73;2.85;;;9.70;99.90;;;;;;5062367;28;20120;-70
2023/06/03 04:47:43;;;;;;;9.80;2.50;;;9.70;99.90;;;;;;5061527;28;20064;-71
2023/06/03 04:50:09;;;;;;;4.97;2.70;;;9.80;99.90;;;;;;5060367;28;20125;-70
2023/06/03 04:52:35;;;;;;;5.85;2.42;;;9.80;99.90;;;;;;5061885;28;20045;-69
2023/06/03 04:55:02;;;;;;;6.65;2.20;;;9.80;99.90;;;;;;5062011;28;20065;-71
2023/06/03 04:57:27;;;;;;;6.25;1.92;;;9.90;99.90;;;;;;5062228;28;20111;-72
2023/06/03 04:59:53;;;;;;;8.65;2.60;;;9.90;99.90;;;;;;5061556;28;20029;-70
2023/06/03 05:02:20;;;;;;;5.28;2.10;;;10.00;99.90;;;;;;5061379;28;20100;-69
2023/06/03 05:04:49;;;;;;;7.50;2.50;;;10.10;99.90;;;;;;5061865;28;20482;-70
2023/06/03 05:07:15;;;;;;;3.60;1.88;;;10.20;99.90;;;;;;5059285;28;20040;-70
2023/06/03 05:09:41;;;;;;;4.90;2.40;;;10.20;99.90;;;;;;5061729;28;20025;-70
2023/06/03 05:12:07;;;;;;;3.30;1.90;;;10.30;99.90;;;;;;5061906;28;20040;-71
2023/06/03 05:14:33;;;;;;;4.80;2.00;;;10.40;99.90;;;;;;5061412;28;20075;-70
2023/06/03 05:16:58;;;;;;;4.13;2.08;;;10.40;99.90;;;;;;5061179;28;20502;-71
2023/06/03 05:19:24;;;;;;;7.13;2.70;;;10.50;99.90;;;;;;5061404;28;20021;-70
2023/06/03 05:21:50;;;;;;;3.47;1.75;;;10.50;99.90;;;;;;5061399;28;20021;-71
2023/06/03 05:24:15;;;;;;;3.33;1.90;;;10.60;99.90;;;;;;5061332;28;20040;-70
2023/06/03 05:26:41;;;;;;;4.20;1.90;;;10.70;99.90;;;;;;5060838;28;20398;-71
2023/06/03 05:29:07;;;;;;;4.93;1.75;;;10.70;99.90;;;;;;5060177;28;20031;-70
2023/06/03 05:31:32;;;;;;;3.63;1.80;;;10.80;99.90;;;;;;5061176;28;20525;-70
2023/06/03 05:33:58;;;;;;;3.30;1.80;;;10.80;99.90;;;;;;5061008;28;20031;-71
2023/06/03 05:36:26;;;;;;;2.78;1.70;;;10.90;99.90;;;;;;5061841;28;20029;-70
2023/06/03 05:38:52;;;;;;;3.40;1.80;;;10.90;99.90;;;;;;5060640;28;20021;-70
2023/06/03 05:41:17;;;;;;;3.47;1.52;;;11.00;99.90;;;;;;5062009;28;20021;-70
2023/06/03 05:43:43;;;;;;;4.32;1.70;;;11.10;99.90;;;;;;5064481;28;20036;-69
2023/06/03 05:46:09;;;;;;;4.57;1.88;;;11.10;99.90;;;;;;5065192;28;20096;-71
2023/06/03 05:48:34;;;;;;;2.85;1.85;;;11.20;99.90;;;;;;5063990;28;20053;-70
2023/06/03 05:51:00;;;;;;;3.80;1.83;;;11.20;99.90;;;;;;5063072;28;20040;-71
2023/06/03 05:53:26;;;;;;;5.30;1.70;;;11.30;99.90;;;;;;5063978;28;20055;-71
2023/06/03 05:55:52;;;;;;;4.03;1.90;;;11.30;99.90;;;;;;5061884;28;20036;-70
2023/06/03 05:58:19;;;;;;;4.25;1.70;;;11.40;99.90;;;;;;5059571;28;20029;-70
2023/06/03 06:00:45;;;;;;;5.18;1.70;;;11.50;99.90;;;;;;5062850;28;20028;-70
2023/06/03 06:03:13;;;;;;;2.30;1.40;;;11.50;99.90;;;;;;5064451;28;20040;-70
2023/06/03 06:05:38;;;;;;;3.58;1.30;;;11.60;99.90;;;;;;5064220;28;20041;-69
2023/06/03 06:08:04;;;;;;;9.57;1.55;;;11.70;99.90;;;;;;5059322;28;20033;-71
2023/06/03 06:10:30;;;;;;;8.27;1.40;;;11.70;99.90;;;;;;5061591;28;20050;-71
2023/06/03 06:12:56;;;;;;;2.42;1.50;;;11.80;99.90;;;;;;5061554;28;20029;-70
2023/06/03 06:15:21;;;;;;;7.20;1.63;;;11.80;99.90;;;;;;5062667;28;20028;-70
2023/06/03 06:17:47;;;;;;;3.10;1.42;;;11.90;99.90;;;;;;5063636;28;20029;-70
2023/06/03 06:20:13;;;;;;;2.90;1.55;;;12.00;99.90;;;;;;5064827;28;20032;-71
2023/06/03 06:22:39;;;;;;;10.15;1.55;;;12.00;99.90;;;;;;5063749;28;20020;-70
2023/06/03 06:25:06;;;;;;;5.15;1.88;;;12.10;99.90;;;;;;5061244;28;20067;-70
2023/06/03 06:27:31;;;;;;;4.70;1.70;;;12.20;99.90;;;;;;5060107;28;20517;-69
2023/06/03 06:29:58;;;;;;;6.10;1.67;;;12.20;99.90;;;;;;5061503;28;20029;-71
2023/06/03 06:32:25;;;;;;;3.00;1.50;;;12.30;99.90;;;;;;5059174;28;20429;-70
2023/06/03 06:34:54;;;;;;;3.45;1.40;;;12.40;99.90;;;;;;5057022;28;20545;-70
2023/06/03 06:37:21;;;;;;;5.90;1.80;;;12.50;99.90;;;;;;5057771;28;20021;-70
2023/06/03 06:39:49;;;;;;;7.57;1.50;;;12.60;99.90;;;;;;5063053;28;20053;-69
2023/06/03 06:42:29;;;;;;;2.42;1.40;;;12.60;99.90;;;;;;5063893;28;20033;-69
2023/06/03 06:44:55;;;;;;;3.90;1.30;;;12.70;99.90;;;;;;5064163;28;20040;-71
2023/06/03 06:47:21;;;;;;;2.38;1.20;;;12.80;99.90;;;;;;5063469;28;20395;-70
2023/06/03 06:49:48;;;;;;;4.00;1.35;;;12.90;99.90;;;;;;5064336;28;20029;-70
2023/06/03 06:52:14;;;;;;;4.25;1.55;;;13.00;99.90;;;;;;5063049;28;20037;-70
2023/06/03 06:54:41;;;;;;;2.35;1.33;;;13.10;99.90;;;;;;5063753;28;20036;-69
2023/06/03 06:57:07;;;;;;;5.00;1.35;;;13.20;99.90;;;;;;5064236;28;20092;-69
2023/06/03 06:59:33;;;;;;;3.58;1.50;;;13.30;99.90;;;;;;5063365;28;20029;-71
2023/06/03 07:01:58;;;;;;;2.95;1.50;;;13.40;99.90;;;;;;5064151;28;20028;-71
2023/06/03 07:04:24;;;;;;;5.25;1.80;;;13.40;99.90;;;;;;5063110;28;20063;-70
2023/06/03 07:06:50;;;;;;;5.50;1.70;;;13.50;99.90;;;;;;5060784;28;20041;-70
2023/06/03 07:09:16;;;;;;;4.18;1.60;;;13.60;99.90;;;;;;5063809;28;20064;-71
2023/06/03 07:11:46;;;;;;;6.35;1.60;;;13.70;99.90;;;;;;5063964;28;20033;-71
2023/06/03 07:14:12;;;;;;;6.15;1.60;;;13.70;99.90;;;;;;5063007;28;20595;-70
2023/06/03 07:16:40;;;;;;;4.53;1.60;;;13.80;99.90;;;;;;5063666;28;20032;-71
2023/06/03 07:19:06;;;;;;;4.25;1.50;;;13.90;99.90;;;;;;5057155;28;20043;-69
2023/06/03 07:21:33;;;;;;;5.28;1.50;;;13.90;99.90;;;;;;5061053;28;20031;-70
2023/06/03 07:24:00;;;;;;;2.60;1.33;;;14.00;99.90;;;;;;5063689;28;20181;-70
2023/06/03 07:26:27;;;;;;;3.47;1.10;;;14.10;99.90;;;;;;5061089;28;20051;-70
2023/06/03 07:28:57;;;;;;;1.95;1.10;;;14.20;99.90;;;;;;5057559;28;20056;-70
2023/06/03 07:31:23;;;;;;;4.32;1.35;;;14.30;99.90;;;;;;5062289;28;20462;-69
2023/06/03 07:33:51;;;;;;;2.72;1.30;;;14.30;99.90;;;;;;5059706;28;20025;-70
2023/06/03 07:36:19;;;;;;;2.33;1.35;;;14.40;99.90;;;;;;5060026;28;20045;-68
2023/06/03 07:38:56;;;;;;;4.72;1.25;;;14.50;99.90;;;;;;5061666;28;20111;-68
2023/06/03 07:41:36;;;;;;;3.30;1.23;;;14.60;99.90;;;;;;5062686;28;20033;-70
2023/06/03 07:44:05;;;;;;;2.40;1.00;;;14.70;99.90;;;;;;5061150;28;20043;-70
2023/06/03 07:46:45;;;;;;;2.90;1.20;;;14.70;99.90;;;;;;5062401;28;20049;-70
2023/06/03 07:49:14;;;;;;;2.83;1.33;;;14.80;99.90;;;;;;5062468;28;20452;-69
2023/06/03 07:51:43;;;;;;;3.75;1.20;;;14.90;99.90;;;;;;5062036;28;20052;-70
2023/06/03 07:54:09;;;;;;;7.30;1.48;;;14.90;99.90;;;;;;5061560;28;20033;-69
2023/06/03 07:56:34;;;;;;;2.22;1.00;;;15.00;99.90;;;;;;5060202;28;20025;-71
2023/06/03 07:59:03;;;;;;;3.85;1.10;;;15.10;99.90;;;;;;5055180;28;20117;-69
2023/06/03 08:01:29;;;;;;;3.35;1.40;;;15.10;99.90;;;;;;5057283;28;20021;-69
2023/06/03 08:03:55;;;;;;;2.55;0.90;;;15.20;99.90;;;;;;5059823;28;20032;-70
2023/06/03 08:06:25;;;;;;;1.65;1.00;;;15.30;99.90;;;;;;5062006;28;20036;-70
2023/06/03 08:08:52;;;;;;;3.25;1.00;;;15.30;99.90;;;;;;5062620;28;20029;-69
2023/06/03 08:11:18;;;;;;;5.13;1.20;;;15.40;99.90;;;;;;5060109;28;20025;-70
2023/06/03 08:13:44;;;;;;;1.20;0.80;;;15.50;99.90;;;;;;5061324;28;20035;-69
2023/06/03 08:16:14;;;;;;;2.20;0.88;;;15.50;99.90;;;;;;5058655;28;20033;-69
2023/06/03 08:18:48;;;;;;;3.22;0.90;;;15.60;99.90;;;;;;5059607;28;20032;-69
2023/06/03 08:21:14;;;;;;;2.90;0.95;;;15.70;99.90;;;;;;5058052;28;20066;-70
2023/06/03 08:23:42;;;;;;;2.40;0.90;;;15.80;99.90;;;;;;5058570;28;20505;-70
2023/06/03 08:26:09;;;;;;;5.18;1.13;;;15.90;99.90;;;;;;5061669;28;20035;-70
2023/06/03 08:28:38;;;;;;;6.20;1.05;;;16.00;99.90;;;;;;5060000;28;20033;-70
2023/06/03 08:31:04;;;;;;;1.90;0.93;;;16.10;99.90;;;;;;5060620;28;20048;-73
2023/06/03 08:33:29;;;;;;;2.85;0.95;;;16.20;99.90;;;;;;5060802;28;20128;-70
2023/06/03 08:35:55;;;;;;;2.63;0.93;;;16.20;99.90;;;;;;5061506;28;20029;-71
2023/06/03 08:38:21;;;;;;;5.68;1.20;;;16.30;99.90;;;;;;5060883;28;20047;-70
2023/06/03 08:40:48;;;;;;;0.98;0.75;;;16.40;99.90;;;;;;5060154;28;20036;-69
2023/06/03 08:43:15;;;;;;;3.70;1.25;;;16.50;99.90;;;;;;5058880;28;20035;-71
2023/06/03 08:46:18;;;;;;;3.45;1.00;;;16.60;99.90;;;;;;5059649;28;20044;-70
2023/06/03 08:49:03;;;;;;;8.07;1.10;;;16.70;99.90;;;;;;5059234;28;20110;-70
2023/06/03 08:51:38;;;;;;;1.67;1.00;;;16.70;99.90;;;;;;5057572;28;20516;-67
2023/06/03 08:54:13;;;;;;;2.80;1.08;;;16.70;99.90;;;;;;5059846;28;20028;-67
2023/06/03 08:56:44;;;;;;;1.80;0.93;;;16.80;99.90;;;;;;5059195;28;20032;-68
2023/06/03 08:59:15;;;;;;;3.30;0.90;;;17.00;99.90;;;;;;5056449;28;20093;-67
2023/06/03 09:01:44;;;;;;;1.05;0.82;;;17.10;99.90;;;;;;5058800;28;20017;-66
2023/06/03 09:04:12;;;;;;;2.97;0.98;;;17.20;99.90;;;;;;5060132;28;20128;-67
2023/06/03 09:06:43;;;;;;;3.05;0.90;;;17.40;99.90;;;;;;5056932;28;20033;-67
2023/06/03 09:09:10;;;;;;;3.47;1.15;;;17.60;99.90;;;;;;5057936;28;20025;-67
2023/06/03 09:11:36;;;;;;;2.75;1.00;;;17.80;99.90;;;;;;5058460;28;20049;-69
2023/06/03 09:14:04;;;;;;;2.65;1.00;;;18.00;99.90;;;;;;5058758;28;20025;-70
2023/06/03 09:16:31;;;;;;;2.90;1.05;;;18.10;99.90;;;;;;5058831;28;20024;-68
2023/06/03 09:18:58;;;;;;;3.40;1.00;;;18.10;99.90;;;;;;5058829;28;20033;-68
2023/06/03 09:21:23;;;;;;;3.80;0.88;;;18.30;99.90;;;;;;5060380;28;20080;-67
2023/06/03 09:23:51;;;;;;;5.25;1.20;;;18.30;99.90;;;;;;5059677;28;20062;-69
2023/06/03 09:26:17;;;;;;;2.53;0.88;;;18.40;99.90;;;;;;5057650;28;20039;-67
2023/06/03 09:28:44;;;;;;;5.40;1.10;;;18.40;99.90;;;;;;5059265;28;20097;-68
2023/06/03 09:31:10;;;;;;;3.88;1.00;;;18.40;99.90;;;;;;5060488;28;20081;-68
2023/06/03 09:33:37;;;;;;;7.97;1.10;;;18.40;99.90;;;;;;5060416;28;20086;-67
2023/06/03 09:36:11;;;;;;;2.53;1.00;;;18.60;99.90;;;;;;5059254;28;20021;-69
2023/06/03 09:38:56;;;;;;;2.58;1.10;;;18.70;99.90;;;;;;5059309;28;20032;-68
2023/06/03 09:41:28;;;;;;;2.13;0.90;;;18.70;99.90;;;;;;5057741;28;20576;-66
2023/06/03 09:44:02;;;;;;;3.58;1.05;;;18.70;99.90;;;;;;5058545;28;20118;-69
2023/06/03 09:46:32;;;;;;;1.63;1.00;;;18.90;99.90;;;;;;5060889;28;20041;-67
2023/06/03 09:49:16;;;;;;;4.45;1.02;;;18.90;99.90;;;;;;5056668;28;20032;-69
2023/06/03 09:51:46;;;;;;;1.98;0.90;;;18.90;99.90;;;;;;5057821;28;20099;-68
2023/06/03 09:54:16;;;;;;;4.03;1.10;;;18.90;99.90;;;;;;5057825;28;20032;-68
2023/06/03 09:56:47;;;;;;;1.98;1.10;;;19.10;99.90;;;;;;5058254;28;20083;-68
2023/06/03 09:59:23;;;;;;;3.72;0.80;;;19.10;99.90;;;;;;5059811;28;20032;-68
2023/06/03 10:01:51;;;;;;;2.80;0.80;;;19.20;99.90;;;;;;5055738;28;20300;-68
2023/06/03 10:04:36;;;;;;;2.08;1.00;;;19.30;99.90;;;;;;5058134;28;20029;-68
2023/06/03 10:07:20;;;;;;;4.22;1.10;;;19.30;99.90;;;;;;5058361;28;20182;-68
2023/06/03 10:09:47;;;;;;;2.22;0.90;;;19.30;99.90;;;;;;5058683;28;20025;-68
2023/06/03 10:12:14;;;;;;;2.40;0.82;;;19.40;99.90;;;;;;5059714;28;20040;-68
2023/06/03 10:14:47;;;;;;;3.35;0.80;;;19.50;99.90;;;;;;5058980;28;20095;-69
2023/06/03 10:17:15;;;;;;;2.07;0.93;;;19.60;99.90;;;;;;5056942;28;20065;-68
2023/06/03 10:19:42;;;;;;;29.20;1.85;;;19.60;99.90;;;;;;5053930;28;20038;-68
2023/06/03 10:22:10;;;;;;;4.10;1.05;;;19.60;99.90;;;;;;5054823;28;20063;-68
2023/06/03 10:24:40;;;;;;;4.40;0.95;;;19.80;99.90;;;;;;5059132;28;20017;-67
2023/06/03 10:27:07;;;;;;;2.58;1.00;;;19.80;99.90;;;;;;5054796;28;20613;-69
2023/06/03 10:29:33;;;;;;;3.08;0.93;;;19.80;99.90;;;;;;5060647;28;20029;-69
2023/06/03 10:32:04;;;;;;;1.98;1.10;;;19.90;99.90;;;;;;5057620;28;20044;-68
2023/06/03 10:34:35;;;;;;;3.00;0.90;;;19.90;99.90;;;;;;5056994;28;20032;-68
2023/06/03 10:37:06;;;;;;;3.63;1.00;;;19.90;99.90;;;;;;5054406;28;20029;-69
2023/06/03 10:39:32;;;;;;;5.28;1.10;;;20.00;99.90;;;;;;5058139;28;20082;-68
2023/06/03 10:42:00;;;;;;;4.13;1.00;;;20.10;99.90;;;;;;5059804;28;20081;-66
2023/06/03 10:44:27;;;;;;;7.75;1.33;;;20.20;99.90;;;;;;5062162;28;20108;-67
2023/06/03 10:47:06;;;;;;;3.00;0.90;;;20.20;99.90;;;;;;5063007;28;20060;-69
2023/06/03 10:49:37;;;;;;;3.42;0.90;;;20.30;99.90;;;;;;5062298;28;20614;-67
2023/06/03 10:52:25;;;;;;;1.85;0.90;;;20.40;99.90;;;;;;5022428;28;1101083;-67
2023/06/03 10:55:30;;;;;;;3.80;1.30;;;20.40;99.90;;;;;;5057455;28;20075;-67
2023/06/03 10:58:34;;;;;;;3.38;0.98;;;20.40;99.90;;;;;;5061623;28;20032;-68
2023/06/03 11:01:04;;;;;;;2.97;0.90;;;20.60;99.90;;;;;;5040666;28;21313;-67
2023/06/03 11:03:52;;;;;;;2.03;0.80;;;20.70;99.90;;;;;;5041133;28;20029;-69
2023/06/03 11:06:23;;;;;;;2.55;1.17;;;20.80;99.90;;;;;;5054884;28;20044;-67
2023/06/03 11:09:15;;;;;;;2.70;1.15;;;20.80;99.90;;;;;;5063664;28;20540;-69
2023/06/03 11:11:41;;;;;;;2.28;0.98;;;20.80;99.90;;;;;;5063018;28;20099;-67
2023/06/03 11:14:44;;;;;;;7.30;1.23;;;20.90;99.90;;;;;;5057000;28;20033;-69
2023/06/03 11:17:12;;;;;;;1.48;0.85;;;21.00;99.90;;;;;;5058017;28;20036;-70
2023/06/03 11:19:43;;;;;;;2.70;1.10;;;21.10;99.90;;;;;;5061434;28;20059;-69
2023/06/03 11:22:10;;;;;;;3.13;0.98;;;21.00;99.90;;;;;;5059897;28;20112;-70
2023/06/03 11:24:41;;;;;;;3.92;1.00;;;21.00;99.90;;;;;;5061624;28;20040;-68
2023/06/03 11:27:10;;;;;;;2.08;0.70;;;21.00;99.90;;;;;;5062000;28;20067;-68
2023/06/03 11:29:57;;;;;;;3.25;1.15;;;21.20;99.90;;;;;;5059489;28;20032;-68
2023/06/03 11:32:27;;;;;;;3.08;1.00;;;21.30;99.90;;;;;;5061659;28;20052;-69
2023/06/03 11:35:05;;;;;;;3.13;1.20;;;21.40;99.90;;;;;;5062502;28;20036;-69
2023/06/03 11:37:46;;;;;;;1.20;0.80;;;21.60;99.90;;;;;;5062094;28;20036;-68
2023/06/03 11:40:17;;;;;;;2.13;0.90;;;21.70;99.90;;;;;;5062171;28;20051;-68
2023/06/03 11:42:53;;;;;;;2.50;0.98;;;21.60;99.90;;;;;;5061527;28;20036;-69
2023/06/03 11:45:18;;;;;;;1.98;1.02;;;21.50;99.90;;;;;;5063150;28;20106;-68
2023/06/03 11:47:47;;;;;;;2.95;1.17;;;21.60;99.90;;;;;;5061509;28;20025;-69
2023/06/03 11:50:12;;;;;;;3.38;1.02;;;21.60;99.90;;;;;;5063028;28;20518;-69
2023/06/03 11:52:38;;;;;;;5.13;1.00;;;21.70;99.90;;;;;;5057677;28;20060;-69
2023/06/03 11:55:04;;;;;;;3.50;1.08;;;21.80;99.90;;;;;;5061396;28;20117;-71
2023/06/03 11:57:30;;;;;;;3.42;1.00;;;21.90;99.90;;;;;;5061797;28;20473;-70
2023/06/03 11:59:57;;;;;;;2.40;1.05;;;22.00;99.90;;;;;;5061807;28;20050;-71
2023/06/03 12:02:22;;;;;;;3.80;1.35;;;22.10;99.90;;;;;;5061066;28;20028;-69
2023/06/03 12:04:48;;;;;;;2.10;0.93;;;22.10;99.90;;;;;;5062786;28;20021;-69
2023/06/03 12:07:17;;;;;;;5.15;1.10;;;22.20;99.90;;;;;;5062361;28;20051;-70
2023/06/03 12:09:43;;;;;;;6.60;1.40;;;22.20;99.90;;;;;;5062071;28;20028;-70
2023/06/03 12:12:10;;;;;;;3.13;0.90;;;22.30;99.90;;;;;;5061498;28;20055;-70
2023/06/03 12:14:38;;;;;;;2.38;1.20;;;22.40;99.90;;;;;;5060903;28;20060;-68
2023/06/03 12:17:09;;;;;;;3.63;1.00;;;22.50;99.90;;;;;;5062013;28;20055;-69
2023/06/03 12:20:04;;;;;;;5.22;1.10;;;22.50;99.90;;;;;;5060418;28;20505;-68
2023/06/03 12:22:29;;;;;;;6.57;1.13;;;22.60;99.90;;;;;;5058552;28;20033;-69
2023/06/03 12:24:55;;;;;;;5.03;1.25;;;22.60;99.90;;;;;;5060434;28;20334;-67
2023/06/03 12:27:22;;;;;;;4.47;1.30;;;22.70;99.90;;;;;;5060861;28;20021;-69
2023/06/03 12:29:57;;;;;;;9.88;1.33;;;22.70;99.90;;;;;;5060700;28;20051;-69
2023/06/03 12:32:23;;;;;;;;;;;22.80;99.90;;;;;;5059910;28;20032;-68
2023/06/03 12:34:49;;;;;;;3.10;1.05;;;22.90;99.90;;;;;;5061763;28;19911;-69
2023/06/03 12:37:27;;;;;;;2.83;0.93;;;22.90;99.90;;;;;;5061284;28;20096;-69
2023/06/03 12:39:54;;;;;;;2.17;1.20;;;23.00;99.90;;;;;;5060088;28;20123;-68
2023/06/03 12:42:35;;;;;;;4.50;1.17;;;23.00;99.90;;;;;;5061348;28;20032;-69
2023/06/03 12:45:01;;;;;;;3.50;1.15;;;23.00;99.90;;;;;;5061370;28;20029;-69
2023/06/03 12:47:28;;;;;;;3.45;1.27;;;23.10;99.90;;;;;;5058746;28;20029;-70
2023/06/03 12:50:08;;;;;;;2.00;1.10;;;23.10;99.90;;;;;;5058034;28;20480;-74
2023/06/03 12:52:36;;;;;;;2.90;1.30;;;23.10;99.90;;;;;;5060594;28;20083;-71
2023/06/03 12:55:07;;;;;;;4.88;1.15;;;23.00;99.90;;;;;;5061947;28;20028;-70
2023/06/03 12:57:40;;;;;;;2.88;1.30;;;23.00;99.90;;;;;;5056584;28;20024;-73